Terminal Aerodrome Forecast
Issued by NWS Charleston, WV

Current Version | Previous Version | Text Only | Print | Product List | Glossary Off
Versions: 1 2 3 4 5 6 7 8 9 10 11 12 13 14 15 16 17 18 19 20 21 22 23 24 25 26

384
FTUS41 KRLX 292326
TAFPKB
TAF
KPKB 292326Z 3000/3024 18006KT P6SM SCT200
     FM300230 00000KT 4SM BR SCT200
     FM300600 00000KT 2SM BR SCT200
     FM301300 VRB04KT P6SM BKN200=

USA.gov is the U.S. government's official web portal to all federal, state and local government web resources and services.